Time;durP1;ratioP1;P1;durP2;ratioP2;P2;SDS_P1;SDS_P2;PMS_P1;PMS_P2;Temp;Humidity;BMP_temperature;BMP_pressure;BME280_temperature;BME280_humidity;BME280_pressure;Samples;Min_cycle;Max_cycle;Signal;HPM_P1;HPM_P2
2022/03/17 00:00:59;;;;;;;17.33;12.07;;;;;;;16.63;36.74;101670.03;5048744;28;20049;-80
2022/03/17 00:03:26;;;;;;;16.40;12.05;;;;;;;16.64;36.54;101664.41;5029562;28;20136;-80
2022/03/17 00:05:53;;;;;;;17.15;12.38;;;;;;;16.64;36.54;101666.28;5051020;28;20484;-80
2022/03/17 00:08:20;;;;;;;17.70;12.70;;;;;;;16.65;36.54;101668.03;5051734;28;20516;-81
2022/03/17 00:10:46;;;;;;;18.08;12.70;;;;;;;16.65;36.70;101668.03;5050868;28;20122;-80
2022/03/17 00:13:13;;;;;;;16.25;12.10;;;;;;;16.65;36.72;101670.78;5032872;28;20041;-80
2022/03/17 00:15:40;;;;;;;16.48;11.75;;;;;;;16.65;37.06;101674.38;5049333;28;20080;-80
2022/03/17 00:18:08;;;;;;;15.65;11.82;;;;;;;16.66;36.65;101681.63;5052626;28;20049;-80
2022/03/17 00:20:35;;;;;;;16.88;12.45;;;;;;;16.66;36.64;101675.25;5045314;28;20056;-80
2022/03/17 00:23:02;;;;;;;14.68;11.20;;;;;;;16.67;36.47;101677.03;5052365;28;20053;-80
2022/03/17 00:25:32;;;;;;;14.55;10.63;;;;;;;16.68;36.71;101682.38;5050489;28;20049;-80
2022/03/17 00:27:59;;;;;;;14.32;10.65;;;;;;;16.69;36.75;101672.28;5050994;28;20321;-80
2022/03/17 00:30:26;;;;;;;15.45;11.23;;;;;;;16.69;36.89;101681.41;5050421;28;20052;-80
2022/03/17 00:32:53;;;;;;;13.80;10.95;;;;;;;16.70;36.89;101682.28;5033872;28;20053;-80
2022/03/17 00:35:35;;;;;;;15.65;10.98;;;;;;;16.69;36.74;101677.78;5032410;28;20059;-80
2022/03/17 00:38:03;;;;;;;14.85;10.05;;;;;;;16.69;36.76;101681.41;5040108;28;20049;-80
2022/03/17 00:40:30;;;;;;;16.63;11.00;;;;;;;16.70;36.62;101676.78;5037534;28;20073;-80
2022/03/17 00:42:57;;;;;;;14.45;11.05;;;;;;;16.69;36.69;101677.78;5049861;28;20049;-80
2022/03/17 00:45:24;;;;;;;16.15;12.00;;;;;;;16.71;36.49;101687.63;5049051;28;20045;-80
2022/03/17 00:47:51;;;;;;;18.00;12.48;;;;;;;16.71;36.58;101675.78;5051233;28;20049;-80
2022/03/17 00:50:18;;;;;;;18.10;12.75;;;;;;;16.71;36.61;101681.28;5050084;28;20048;-80
2022/03/17 00:52:45;;;;;;;15.93;12.25;;;;;;;16.71;37.00;101673.94;5050285;28;20048;-80
2022/03/17 00:55:11;;;;;;;18.80;13.43;;;;;;;16.71;36.81;101673.94;5040613;28;20072;-80
2022/03/17 00:57:39;;;;;;;19.23;14.07;;;;;;;16.68;36.53;101671.41;5049475;28;20045;-81
2022/03/17 01:00:09;;;;;;;17.58;13.55;;;;;;;16.70;36.74;101672.19;5036059;28;20407;-80
2022/03/17 01:02:36;;;;;;;17.85;13.52;;;;;;;16.68;36.72;101665.06;5051991;28;20080;-80
2022/03/17 01:05:04;;;;;;;16.90;13.35;;;;;;;16.66;36.62;101669.78;5047733;28;20079;-80
2022/03/17 01:07:32;;;;;;;15.48;12.05;;;;;;;16.63;36.70;101661.81;5033555;28;20045;-80
2022/03/17 01:10:00;;;;;;;14.57;11.38;;;;;;;16.59;36.77;101658.41;4992669;28;20054;-80
2022/03/17 01:12:26;;;;;;;15.32;12.30;;;;;;;16.59;36.93;101661.13;5031990;28;20045;-80
2022/03/17 01:14:53;;;;;;;14.38;11.15;;;;;;;16.57;36.82;101651.28;5035857;28;20564;-80
2022/03/17 01:17:20;;;;;;;15.65;12.02;;;;;;;16.57;36.64;101662.25;5050354;28;20563;-80
2022/03/17 01:19:47;;;;;;;14.68;10.68;;;;;;;16.55;36.70;101659.66;5030801;28;20412;-80
2022/03/17 01:22:14;;;;;;;17.45;12.63;;;;;;;16.53;36.69;101656.16;5050804;28;20076;-80
2022/03/17 01:24:41;;;;;;;16.20;11.80;;;;;;;16.53;36.60;101652.53;5049121;28;20048;-80
2022/03/17 01:27:07;;;;;;;15.45;11.60;;;;;;;16.52;36.71;101659.00;5047712;28;20041;-80
2022/03/17 01:29:34;;;;;;;15.10;11.07;;;;;;;16.52;36.97;101656.25;5049343;28;20053;-80
2022/03/17 01:32:01;;;;;;;14.98;11.90;;;;;;;16.51;36.97;101651.78;5050533;28;20087;-80
2022/03/17 01:34:28;;;;;;;17.17;12.30;;;;;;;16.51;36.72;101658.13;5049589;28;20508;-81
2022/03/17 01:36:55;;;;;;;16.92;12.50;;;;;;;16.51;36.66;101665.47;5049691;28;20049;-80
2022/03/17 01:39:22;;;;;;;14.85;10.95;;;;;;;16.50;36.67;101661.00;5047168;28;20087;-80
2022/03/17 01:41:50;;;;;;;14.50;11.25;;;;;;;16.49;36.98;101657.38;5033510;28;20048;-80
2022/03/17 01:44:17;;;;;;;14.20;10.98;;;;;;;16.50;36.75;101647.28;5050426;28;20049;-80
2022/03/17 01:49:29;;;;;;;14.77;11.45;;;;;;;16.47;36.98;101639.31;5048502;28;20113;-81
2022/03/17 01:51:56;;;;;;;16.20;11.88;;;;;;;16.46;36.81;101643.06;5035380;28;20810;-80
2022/03/17 01:54:24;;;;;;;14.90;11.25;;;;;;;16.46;37.08;101654.03;5029842;28;20570;-80
2022/03/17 01:57:05;;;;;;;18.08;12.65;;;;;;;16.45;36.79;101653.16;5048434;28;20120;-80
2022/03/17 01:59:33;;;;;;;14.73;11.85;;;;;;;16.44;36.73;101645.91;5048304;28;20091;-80
2022/03/17 02:02:02;;;;;;;15.75;11.90;;;;;;;16.43;37.10;101643.28;5033307;28;20056;-80
2022/03/17 02:04:29;;;;;;;15.70;11.85;;;;;;;16.41;37.07;101642.53;5032395;28;20053;-80
2022/03/17 02:06:56;;;;;;;16.65;12.15;;;;;;;16.41;37.29;101659.84;5033364;28;20045;-80
2022/03/17 02:09:26;;;;;;;17.92;13.13;;;;;;;16.41;36.95;101650.75;5029438;28;20041;-81
2022/03/17 02:15:00;;;;;;;16.42;12.50;;;;;;;16.40;37.07;101641.66;5047059;28;20544;-80
2022/03/17 02:17:32;;;;;;;15.93;11.93;;;;;;;16.38;36.95;101654.63;5032326;28;20511;-80
2022/03/17 02:20:00;;;;;;;19.17;13.35;;;;;;;16.39;36.89;101655.50;5028034;28;20048;-81
2022/03/17 02:22:29;;;;;;;18.08;14.15;;;;;;;16.38;37.13;101651.88;5032372;28;20084;-80
2022/03/17 02:27:47;;;;;;;18.08;13.68;;;;;;;16.39;37.23;101653.59;5049336;28;20486;-80
2022/03/17 02:30:19;;;;;;;19.50;13.82;;;;;;;16.35;36.73;101646.63;5041268;28;20115;-80
2022/03/17 02:32:47;;;;;;;18.23;13.18;;;;;;;16.34;37.24;101642.13;5050047;28;20053;-80
2022/03/17 02:35:18;;;;;;;18.85;13.48;;;;;;;16.34;37.15;101640.28;5040616;28;20139;-80
2022/03/17 02:37:46;;;;;;;15.75;12.10;;;;;;;16.33;36.89;101637.66;5045989;28;20053;-80
2022/03/17 02:40:12;;;;;;;20.85;14.60;;;;;;;16.31;37.01;101637.75;5038037;28;20579;-80
2022/03/17 02:42:39;;;;;;;17.50;13.10;;;;;;;16.31;37.27;101637.75;5028709;28;20049;-80
2022/03/17 02:45:10;;;;;;;17.92;12.85;;;;;;;16.32;37.25;101646.88;5030278;28;20149;-80
2022/03/17 02:47:38;;;;;;;18.30;13.23;;;;;;;16.30;37.04;101643.38;5031727;28;20364;-80
2022/03/17 02:50:06;;;;;;;19.70;13.30;;;;;;;16.31;37.20;101642.38;5044215;28;20044;-80
2022/03/17 02:52:33;;;;;;;17.55;13.40;;;;;;;16.31;37.02;101642.38;5049359;28;20515;-80
2022/03/17 02:55:00;;;;;;;20.15;13.40;;;;;;;16.30;37.23;101643.38;5031623;28;20129;-81
2022/03/17 02:57:26;;;;;;;17.25;12.60;;;;;;;16.31;37.36;101645.97;5049264;28;20068;-80
2022/03/17 02:59:54;;;;;;;20.08;14.38;;;;;;;16.30;37.02;101643.38;5031192;28;20415;-80
2022/03/17 03:02:22;;;;;;;20.20;14.90;;;;;;;16.31;37.46;101656.06;5049429;28;20524;-80
2022/03/17 03:04:49;;;;;;;17.80;13.40;;;;;;;16.31;37.09;101650.59;5031914;28;20045;-80
2022/03/17 03:07:15;;;;;;;20.15;14.02;;;;;;;16.32;37.25;101652.34;5046229;28;20135;-80
2022/03/17 03:09:42;;;;;;;18.88;14.20;;;;;;;16.32;37.25;101646.88;5046539;28;20132;-81
2022/03/17 03:12:09;;;;;;;18.90;13.13;;;;;;;16.34;37.42;101655.84;5034930;28;20063;-80
2022/03/17 03:14:36;;;;;;;18.85;13.55;;;;;;;16.34;37.34;101648.50;5061337;28;20049;-80
2022/03/17 03:17:03;;;;;;;19.67;14.18;;;;;;;16.36;37.54;101653.88;5055536;28;20364;-80
2022/03/17 03:19:30;;;;;;;19.15;14.07;;;;;;;16.36;37.18;101654.75;5034283;28;20124;-80
2022/03/17 03:21:57;;;;;;;18.98;13.75;;;;;;;16.38;37.43;101656.50;5049920;28;20467;-80
2022/03/17 03:24:24;;;;;;;17.52;13.32;;;;;;;16.40;37.17;101657.22;5031546;28;20088;-80
2022/03/17 03:26:52;;;;;;;18.17;13.93;;;;;;;16.38;37.10;101651.88;5031235;28;20053;-80
2022/03/17 03:29:22;;;;;;;20.38;14.38;;;;;;;16.39;37.30;101659.09;5037542;28;20049;-80
2022/03/17 03:31:54;;;;;;;18.73;13.50;;;;;;;16.41;37.73;101668.06;5035343;28;20080;-80
2022/03/17 03:34:22;;;;;;;17.15;13.23;;;;;;;16.37;37.32;101672.06;5047003;28;20079;-80
2022/03/17 03:39:35;;;;;;;18.55;13.35;;;;;;;16.38;37.26;101675.69;5051945;28;20056;-80
2022/03/17 03:42:04;;;;;;;18.02;13.35;;;;;;;16.40;37.20;101685.50;5034805;28;20059;-80
2022/03/17 03:44:31;;;;;;;16.33;12.90;;;;;;;16.41;37.33;101689.13;5049522;28;20451;-80
2022/03/17 03:46:58;;;;;;;17.30;12.05;;;;;;;16.41;37.51;101700.97;5036666;28;20053;-80
2022/03/17 03:49:25;;;;;;;17.25;12.02;;;;;;;16.43;37.43;101703.59;5051272;28;20507;-79
2022/03/17 03:51:52;;;;;;;19.83;14.23;;;;;;;16.43;37.20;101707.19;5056173;28;20053;-80
2022/03/17 03:54:19;;;;;;;16.58;11.85;;;;;;;16.44;37.08;101711.69;5035796;28;20645;-80
2022/03/17 03:56:49;;;;;;;17.48;12.70;;;;;;;16.47;37.35;101718.81;5043233;28;20070;-79
2022/03/17 03:59:21;;;;;;;17.40;12.90;;;;;;;16.46;37.47;101726.16;5037973;28;20449;-80
2022/03/17 04:01:51;;;;;;;18.23;13.40;;;;;;;16.45;37.21;101732.63;5049647;28;20064;-79
2022/03/17 04:04:19;;;;;;;16.17;12.15;;;;;;;16.47;37.33;101730.63;5042161;28;20534;-80
2022/03/17 04:06:48;;;;;;;16.77;12.75;;;;;;;16.47;37.07;101736.09;5045745;28;20621;-80
2022/03/17 04:09:18;;;;;;;18.08;13.75;;;;;;;16.48;37.35;101736.97;5050446;28;20416;-79
2022/03/17 04:11:45;;;;;;;17.08;12.88;;;;;;;16.47;36.96;101748.97;5046932;28;20504;-79
2022/03/17 04:14:13;;;;;;;17.13;13.05;;;;;;;16.45;37.22;101749.09;5032506;28;20059;-79
2022/03/17 04:16:41;;;;;;;17.42;13.02;;;;;;;16.46;37.35;101753.56;5051082;28;20044;-79
2022/03/17 04:19:09;;;;;;;17.02;12.18;;;;;;;16.45;37.34;101762.78;5034167;28;20044;-79
2022/03/17 04:21:37;;;;;;;17.25;11.60;;;;;;;16.45;37.55;101771.00;5052004;28;20059;-79
2022/03/17 04:24:04;;;;;;;18.08;13.00;;;;;;;16.46;37.82;101766.41;5050868;28;20060;-79
2022/03/17 04:26:31;;;;;;;17.10;12.02;;;;;;;16.46;37.51;101772.75;5051373;28;20071;-79
2022/03/17 04:28:58;;;;;;;17.17;12.85;;;;;;;16.46;37.65;101770.03;5050538;28;20052;-79
2022/03/17 04:31:25;;;;;;;15.82;12.75;;;;;;;16.47;37.53;101776.38;5032850;28;20454;-78
2022/03/17 04:33:52;;;;;;;19.13;14.00;;;;;;;16.47;37.97;101781.88;5040189;28;20052;-79
2022/03/17 04:36:19;;;;;;;17.02;12.70;;;;;;;16.45;37.94;101787.47;5032299;28;20519;-79
2022/03/17 04:38:46;;;;;;;18.08;13.65;;;;;;;16.47;38.39;101792.81;5031980;28;20067;-79
2022/03/17 04:41:14;;;;;;;18.58;13.32;;;;;;;16.46;38.27;101794.69;5034480;28;20136;-78
2022/03/17 04:43:41;;;;;;;17.98;13.48;;;;;;;16.45;38.60;101798.41;5051518;28;20056;-79
2022/03/17 04:46:08;;;;;;;19.13;13.70;;;;;;;16.46;38.73;101802.91;5049808;28;20041;-80
2022/03/17 04:48:35;;;;;;;17.30;12.82;;;;;;;16.46;38.58;101808.41;5049772;28;20466;-80
2022/03/17 04:51:02;;;;;;;20.55;14.30;;;;;;;16.46;39.01;101813.00;5036856;28;20056;-82
2022/03/17 04:53:32;;;;;;;19.13;13.40;;;;;;;16.46;39.11;101811.13;5032652;28;20123;-81
2022/03/17 04:56:05;;;;;;;18.90;14.07;;;;;;;16.48;39.44;101824.69;5045357;28;20056;-81
2022/03/17 04:58:33;;;;;;;17.98;12.98;;;;;;;16.46;39.39;101818.50;5050774;28;20048;-82
2022/03/17 05:01:00;;;;;;;19.00;14.00;;;;;;;16.47;39.83;101825.72;5039984;28;20064;-81
2022/03/17 05:03:28;;;;;;;18.90;13.40;;;;;;;16.46;39.83;101827.59;5051443;28;20104;-81
2022/03/17 05:05:55;;;;;;;18.55;13.73;;;;;;;16.47;40.14;101836.69;5037822;28;20493;-83
2022/03/17 05:08:23;;;;;;;20.80;14.23;;;;;;;16.46;40.36;101844.03;5033412;28;20466;-83
2022/03/17 05:10:52;;;;;;;17.88;13.13;;;;;;;16.47;40.52;101839.44;5050491;28;20581;-83
2022/03/17 05:13:22;;;;;;;18.50;14.07;;;;;;;16.47;40.26;101844.91;5045384;28;20091;-84
2022/03/17 05:15:51;;;;;;;19.88;13.75;;;;;;;16.46;40.53;101851.38;5047770;28;20080;-83
2022/03/17 05:18:19;;;;;;;18.27;12.85;;;;;;;16.45;40.61;101855.09;5049114;28;20048;-84
2022/03/17 05:20:47;;;;;;;18.92;14.38;;;;;;;16.43;41.18;101866.19;5036327;28;20053;-84
2022/03/17 05:23:16;;;;;;;18.08;13.20;;;;;;;16.43;41.02;101871.66;5045178;28;20524;-83
2022/03/17 05:25:45;;;;;;;20.52;15.02;;;;;;;16.41;41.53;101876.38;5034001;28;20045;-84
2022/03/17 05:28:13;;;;;;;18.73;13.95;;;;;;;16.40;41.65;101879.22;5005862;28;20045;-83
2022/03/17 05:30:41;;;;;;;19.13;14.30;;;;;;;16.39;41.28;101883.84;5020007;28;20052;-83
2022/03/17 05:33:10;;;;;;;19.23;13.60;;;;;;;16.38;42.04;101889.47;5051781;28;20140;-83
2022/03/17 05:35:39;;;;;;;19.08;13.82;;;;;;;16.37;42.23;101899.53;5049288;28;20068;-83
2022/03/17 05:38:06;;;;;;;18.23;13.77;;;;;;;16.34;42.24;101908.84;5037212;28;20404;-83
2022/03/17 05:40:33;;;;;;;20.38;14.48;;;;;;;16.33;41.98;101915.31;5031447;28;20083;-83
2022/03/17 05:43:03;;;;;;;19.63;14.43;;;;;;;16.33;42.18;101926.28;5050398;28;20088;-83
2022/03/17 05:45:30;;;;;;;20.90;14.52;;;;;;;16.31;42.40;101941.97;5048858;28;20558;-83
2022/03/17 05:47:58;;;;;;;18.98;14.25;;;;;;;16.31;42.21;101949.31;5033441;28;20126;-83
2022/03/17 05:50:45;;;;;;;18.73;13.13;;;;;;;16.29;42.21;101951.31;5032842;28;20099;-83
2022/03/17 05:53:39;;;;;;;18.08;13.45;;;;;;;16.23;42.65;101955.34;5030580;28;20512;-83
2022/03/17 05:56:10;;;;;;;18.50;12.80;;;;;;;16.19;41.74;101956.59;5030267;28;20558;-82
2022/03/17 05:58:37;;;;;;;20.52;14.10;;;;;;;16.19;41.91;101962.06;5000477;28;20679;-83
2022/03/17 06:01:04;;;;;;;21.30;14.95;;;;;;;16.17;42.29;101968.63;5047576;28;20072;-83
2022/03/17 06:03:31;;;;;;;20.45;13.30;;;;;;;16.15;42.76;101973.34;5023550;28;20048;-83
2022/03/17 06:05:58;;;;;;;18.02;11.95;;;;;;;16.12;42.92;101977.19;5037556;28;20087;-82
2022/03/17 06:08:25;;;;;;;16.60;10.70;;;;;;;16.08;43.06;101988.47;5025320;28;20451;-82
2022/03/17 06:10:52;;;;;;;14.82;10.57;;;;;;;16.06;43.39;102004.16;5034090;28;20051;-82
2022/03/17 06:13:19;;;;;;;13.35;9.27;;;;;;;16.03;43.37;102004.38;5053569;28;20040;-82
2022/03/17 06:15:46;;;;;;;13.30;8.85;;;;;;;15.99;43.33;102007.31;5040741;28;20385;-81
2022/03/17 06:18:13;;;;;;;11.80;8.55;;;;;;;15.96;43.38;102013.03;5026381;28;20071;-83
2022/03/17 06:20:40;;;;;;;13.57;9.10;;;;;;;15.93;43.55;102029.69;5040308;28;20049;-82
2022/03/17 06:23:07;;;;;;;12.13;8.93;;;;;;;15.91;43.67;102036.22;5050561;28;20057;-83
2022/03/17 06:25:36;;;;;;;12.88;9.07;;;;;;;15.88;43.73;102034.63;5006701;28;20099;-83
2022/03/17 06:28:08;;;;;;;14.73;9.52;;;;;;;15.83;44.09;102039.50;5039787;28;20049;-83
2022/03/17 06:30:36;;;;;;;12.35;9.02;;;;;;;15.80;44.21;102042.50;5031308;28;20079;-83
2022/03/17 06:33:04;;;;;;;11.85;9.27;;;;;;;15.77;44.62;102047.28;5030497;28;20080;-83
2022/03/17 06:35:33;;;;;;;13.95;8.57;;;;;;;15.74;44.33;102063.91;5047737;28;20394;-83
2022/03/17 06:38:02;;;;;;;14.00;9.60;;;;;;;15.72;44.86;102065.91;5032577;28;20084;-83
2022/03/17 06:40:30;;;;;;;14.95;10.10;;;;;;;15.69;44.55;102086.16;4994134;28;20063;-83
2022/03/17 06:42:57;;;;;;;15.40;10.00;;;;;;;15.65;44.64;102076.38;5049413;28;20049;-82
2022/03/17 06:45:25;;;;;;;14.75;10.00;;;;;;;15.61;44.58;102091.28;5004858;28;20179;-83
2022/03/17 06:47:53;;;;;;;15.52;9.68;;;;;;;15.57;44.22;102095.19;5049360;28;20056;-83
2022/03/17 06:50:21;;;;;;;14.52;9.55;;;;;;;15.51;44.75;102101.06;5039907;28;20511;-83
2022/03/17 06:52:49;;;;;;;15.27;9.27;;;;;;;15.48;44.64;102117.72;5050706;28;20048;-82
2022/03/17 06:55:16;;;;;;;14.02;9.30;;;;;;;15.44;45.02;102118.88;5046803;28;20045;-81
2022/03/17 06:57:43;;;;;;;11.23;8.60;;;;;;;15.40;44.70;102134.63;5029495;28;20578;-82
2022/03/17 07:00:15;;;;;;;13.68;8.65;;;;;;;15.41;45.66;102144.59;5050068;28;20052;-82
2022/03/17 07:02:42;;;;;;;10.90;7.95;;;;;;;15.37;44.99;102144.91;5035237;28;20395;-82
2022/03/17 07:05:09;;;;;;;10.60;7.57;;;;;;;15.34;44.75;102147.84;5051608;28;20499;-83
2022/03/17 07:07:37;;;;;;;10.20;7.75;;;;;;;15.31;45.05;102146.19;5048598;28;20072;-82
2022/03/17 07:10:06;;;;;;;10.82;7.78;;;;;;;15.31;45.08;102156.28;5050850;28;20527;-83
2022/03/17 07:12:36;;;;;;;11.05;7.15;;;;;;;15.28;44.57;102161.94;5019353;28;20423;-82
2022/03/17 07:15:05;;;;;;;10.13;6.50;;;;;;;15.23;44.96;102174.03;5041413;28;20055;-82
2022/03/17 07:17:40;;;;;;;9.60;6.60;;;;;;;15.20;45.66;102182.47;5033885;28;20137;-82
2022/03/17 07:20:19;;;;;;;10.50;6.38;;;;;;;15.16;45.00;102199.16;5037551;28;20064;-91
2022/03/17 07:22:49;;;;;;;10.07;6.50;;;;;;;15.12;45.20;102198.50;5025577;28;20041;-92
2022/03/17 07:25:17;;;;;;;11.68;7.20;;;;;;;15.10;44.85;102203.19;5039083;28;20129;-90
2022/03/17 07:27:46;;;;;;;11.38;7.18;;;;;;;15.09;44.88;102197.81;5043452;28;20090;-90
2022/03/17 07:30:20;;;;;;;9.68;6.40;;;;;;;15.08;45.11;102217.94;5033826;28;20045;-91
2022/03/17 07:32:54;;;;;;;11.32;7.15;;;;;;;15.03;44.68;102215.50;5041877;28;20056;-90
2022/03/17 07:35:29;;;;;;;10.32;6.82;;;;;;;15.01;44.53;102222.91;5037130;28;20049;-88
2022/03/17 07:37:58;;;;;;;8.95;6.60;;;;;;;14.97;44.59;102236.91;5032815;28;20080;-89
2022/03/17 07:40:26;;;;;;;9.85;7.07;;;;;;;14.94;44.66;102240.69;5031142;28;20056;-90
2022/03/17 07:42:56;;;;;;;10.18;7.10;;;;;;;14.93;45.02;102246.25;5038586;28;20412;-87
2022/03/17 07:45:23;;;;;;;11.02;7.53;;;;;;;14.89;44.88;102242.84;5035666;28;20059;-86
2022/03/17 07:47:52;;;;;;;11.13;7.30;;;;;;;14.89;44.76;102252.91;5053896;28;20081;-87
2022/03/17 07:50:20;;;;;;;10.82;6.65;;;;;;;14.88;44.88;102260.22;5041170;28;20045;-86
2022/03/17 07:52:50;;;;;;;10.85;7.05;;;;;;;14.87;45.36;102269.41;5054966;28;20147;-87
2022/03/17 07:55:17;;;;;;;9.20;6.57;;;;;;;14.83;44.88;102276.91;5049916;28;20598;-87
2022/03/17 07:57:45;;;;;;;10.55;6.53;;;;;;;14.83;44.53;102284.22;5038454;28;20076;-87
2022/03/17 08:00:12;;;;;;;9.88;5.82;;;;;;;14.82;44.80;102286.09;5051348;28;20052;-86
2022/03/17 08:02:41;;;;;;;8.65;5.40;;;;;;;14.82;44.70;102296.16;5038202;28;20048;-86
2022/03/17 08:05:10;;;;;;;7.20;5.55;;;;;;;14.80;45.11;102298.13;5034905;28;20333;-86
2022/03/17 08:07:37;;;;;;;6.78;4.72;;;;;;;14.80;44.65;102300.84;5041306;28;20048;-83
2022/03/17 08:10:04;;;;;;;8.98;4.68;;;;;;;14.80;44.59;102312.66;5049058;28;20122;-85
2022/03/17 08:12:31;;;;;;;6.38;4.10;;;;;;;14.78;44.39;102319.19;5040092;28;20102;-84
2022/03/17 08:14:58;;;;;;;6.13;3.65;;;;;;;14.78;44.19;102320.06;5041824;28;20045;-85
2022/03/17 08:17:28;;;;;;;6.15;3.63;;;;;;;14.76;44.25;102327.47;5035700;28;20059;-85
2022/03/17 08:19:56;;;;;;;5.75;3.53;;;;;;;14.75;44.31;102336.66;5051987;28;20531;-85
2022/03/17 08:22:25;;;;;;;5.35;2.92;;;;;;;14.74;43.95;102329.41;5041244;28;20110;-85
2022/03/17 08:24:53;;;;;;;4.15;2.15;;;;;;;14.73;43.64;102330.41;5001087;28;20049;-86
2022/03/17 08:27:20;;;;;;;4.47;2.35;;;;;;;14.71;43.76;102343.28;5049405;28;20063;-78
2022/03/17 08:29:48;;;;;;;5.97;2.33;;;;;;;14.68;43.66;102346.19;5048892;28;20072;-78
2022/03/17 08:32:15;;;;;;;4.25;2.20;;;;;;;14.66;43.81;102350.03;5054154;28;20083;-77
2022/03/17 08:34:42;;;;;;;3.92;1.80;;;;;;;14.64;43.35;102351.97;5055121;28;20306;-78
2022/03/17 08:37:09;;;;;;;4.90;2.03;;;;;;;14.61;43.24;102360.34;5050733;28;20045;-78
2022/03/17 08:39:37;;;;;;;4.65;2.03;;;;;;;14.57;43.70;102370.59;5046894;28;20377;-78
2022/03/17 08:42:04;;;;;;;5.18;2.10;;;;;;;14.55;43.45;102372.53;5049064;28;20059;-78
2022/03/17 08:44:31;;;;;;;2.83;1.30;;;;;;;14.52;43.38;102382.75;5027143;28;20049;-78
2022/03/17 08:49:44;;;;;;;2.30;1.27;;;;;;;14.46;43.34;102390.34;5049028;28;20041;-77
2022/03/17 08:52:11;;;;;;;3.40;1.42;;;;;;;14.45;43.18;102394.03;5051531;28;20049;-78
2022/03/17 08:54:38;;;;;;;2.88;1.02;;;;;;;14.43;43.15;102397.81;5033893;28;20106;-78
2022/03/17 08:57:05;;;;;;;2.33;1.13;;;;;;;14.40;43.38;102398.03;5050754;28;20085;-78
2022/03/17 08:59:35;;;;;;;3.90;1.40;;;;;;;14.42;43.26;102415.19;5019133;28;20048;-79
2022/03/17 09:02:07;;;;;;;2.60;1.20;;;;;;;14.41;43.16;102413.47;5048764;28;20072;-78
2022/03/17 09:04:34;;;;;;;3.10;1.40;;;;;;;14.36;43.50;102419.13;5048683;28;20447;-78
2022/03/17 09:07:03;;;;;;;2.97;1.42;;;;;;;14.39;43.42;102424.47;5049018;28;20122;-78
2022/03/17 09:09:32;;;;;;;4.10;1.42;;;;;;;14.39;43.90;102438.13;5053744;28;20041;-77
2022/03/17 09:12:04;;;;;;;3.53;1.40;;;;;;;14.40;43.62;102425.34;5046645;28;20052;-77
2022/03/17 09:14:36;;;;;;;3.22;1.60;;;;;;;14.39;43.83;102434.53;5048589;28;20459;-77
2022/03/17 09:17:03;;;;;;;3.38;1.35;;;;;;;14.43;43.67;102436.09;5022351;28;20488;-76
2022/03/17 09:19:31;;;;;;;2.75;1.50;;;;;;;14.44;43.67;102444.19;5045854;28;20475;-76
2022/03/17 09:22:01;;;;;;;3.63;1.48;;;;;;;14.47;43.44;102448.63;5050296;28;20111;-77
2022/03/17 09:24:30;;;;;;;2.90;1.45;;;;;;;14.48;43.65;102453.13;5025705;28;20627;-77
2022/03/17 09:26:58;;;;;;;2.85;1.23;;;;;;;14.50;43.45;102453.88;5021039;28;20057;-77
2022/03/17 09:29:28;;;;;;;3.85;1.33;;;;;;;14.51;43.66;102461.13;5031484;28;20052;-77
2022/03/17 09:31:58;;;;;;;3.42;2.03;;;;;;;14.52;43.51;102457.41;5032019;28;20049;-77
2022/03/17 09:34:24;;;;;;;2.05;1.20;;;;;;;14.53;43.66;102461.91;5035403;28;20055;-77
2022/03/17 09:36:51;;;;;;;3.13;1.20;;;;;;;14.55;43.20;102456.38;5041082;28;20057;-76
2022/03/17 09:42:04;;;;;;;3.53;1.30;;;;;;;14.57;43.34;102471.72;5055509;28;20048;-76
2022/03/17 09:44:31;;;;;;;3.05;1.30;;;;;;;14.58;43.37;102473.47;5027923;28;20048;-77
2022/03/17 09:46:59;;;;;;;2.55;1.20;;;;;;;14.60;43.30;102476.09;5048950;28;20053;-76
2022/03/17 09:49:28;;;;;;;2.72;1.20;;;;;;;14.59;42.93;102474.34;5049136;28;20102;-77
2022/03/17 09:51:57;;;;;;;3.08;1.33;;;;;;;14.59;43.06;102479.81;5050158;28;20053;-77
2022/03/17 09:54:24;;;;;;;2.53;1.50;;;;;;;14.61;42.73;102484.22;5045356;28;20577;-77
2022/03/17 09:56:51;;;;;;;2.38;1.17;;;;;;;14.57;43.02;102490.84;5041133;28;20053;-76
2022/03/17 09:59:18;;;;;;;3.67;1.27;;;;;;;14.57;42.91;102503.63;5035053;28;20102;-77
2022/03/17 10:01:46;;;;;;;4.50;1.40;;;;;;;14.57;42.77;102493.59;5053329;28;20053;-77
2022/03/17 10:04:13;;;;;;;3.45;1.27;;;;;;;14.57;43.09;102500.91;5049028;28;20045;-77
2022/03/17 10:06:40;;;;;;;3.15;1.33;;;;;;;14.57;42.74;102506.38;5036673;28;20057;-77
2022/03/17 10:09:07;;;;;;;2.65;1.15;;;;;;;14.57;42.84;102504.53;5049981;28;20067;-76
2022/03/17 10:11:37;;;;;;;3.33;1.55;;;;;;;14.58;42.80;102513.56;5045421;28;20045;-77
2022/03/17 10:14:06;;;;;;;3.30;1.10;;;;;;;14.58;43.10;102517.19;5042856;28;20051;-77
2022/03/17 10:16:33;;;;;;;2.63;1.05;;;;;;;14.58;42.82;102519.94;5049957;28;20048;-77
2022/03/17 10:19:12;;;;;;;2.33;0.90;;;;;;;14.62;42.86;102520.66;5053129;28;20080;-76
2022/03/17 10:21:41;;;;;;;2.10;1.00;;;;;;;14.58;42.80;102528.13;5047595;28;20064;-76
2022/03/17 10:24:09;;;;;;;2.30;1.10;;;;;;;14.60;42.67;102536.25;5015751;28;20238;-77
2022/03/17 10:26:46;;;;;;;3.08;1.17;;;;;;;14.64;43.24;102541.47;5036520;28;20055;-77
2022/03/17 10:29:22;;;;;;;2.80;1.00;;;;;;;14.64;42.72;102552.41;5037225;28;20033;-77
2022/03/17 10:31:49;;;;;;;3.17;1.10;;;;;;;14.62;42.95;102554.34;5043081;28;20055;-77
2022/03/17 10:34:18;;;;;;;3.97;1.27;;;;;;;14.65;42.57;102550.56;5031323;28;20521;-77
2022/03/17 10:36:49;;;;;;;3.00;1.42;;;;;;;14.66;43.05;102564.09;5049640;28;20420;-77
2022/03/17 10:39:16;;;;;;;3.15;1.02;;;;;;;14.66;42.84;102561.38;5036828;28;20616;-77
2022/03/17 10:41:48;;;;;;;2.63;1.10;;;;;;;14.70;42.79;102560.25;5047310;28;20553;-77
2022/03/17 10:44:16;;;;;;;5.25;1.48;;;;;;;14.69;42.58;102566.69;5046941;28;20049;-76
2022/03/17 10:46:57;;;;;;;5.35;1.40;;;;;;;14.71;42.62;102572.94;5046367;28;20075;-76
2022/03/17 10:49:23;;;;;;;3.47;1.05;;;;;;;14.69;42.77;102571.25;5047674;28;20045;-76
2022/03/17 10:51:55;;;;;;;2.63;1.02;;;;;;;14.73;42.57;102583.81;5049321;28;20489;-76
2022/03/17 10:54:22;;;;;;;3.25;1.30;;;;;;;14.72;42.38;102591.13;5045064;28;20095;-76
2022/03/17 10:57:06;;;;;;;3.47;1.20;;;;;;;14.77;42.29;102589.00;5056083;28;20064;-79
2022/03/17 10:59:44;;;;;;;3.83;1.25;;;;;;;14.76;42.16;102589.06;5037182;28;20065;-76
2022/03/17 11:02:13;;;;;;;3.88;1.27;;;;;;;14.76;42.32;102594.53;5050539;28;20107;-77
2022/03/17 11:04:43;;;;;;;3.15;1.70;;;;;;;14.77;42.08;102596.31;5047898;28;20063;-76
2022/03/17 11:07:16;;;;;;;4.10;1.30;;;;;;;14.78;42.24;102598.09;5048389;28;20443;-76
2022/03/17 11:09:46;;;;;;;4.40;1.42;;;;;;;14.78;42.14;102601.69;5060118;28;20104;-77
2022/03/17 11:12:20;;;;;;;3.55;1.50;;;;;;;14.80;42.12;102599.78;5073929;28;20067;-77
2022/03/17 11:14:51;;;;;;;2.72;1.30;;;;;;;14.82;42.15;102614.22;5062501;28;20075;-77
2022/03/17 11:17:29;;;;;;;3.53;1.25;;;;;;;14.83;42.12;102610.50;5031146;28;20046;-76
2022/03/17 11:20:06;;;;;;;5.60;1.42;;;;;;;14.87;42.32;102610.34;5045482;28;20488;-77
2022/03/17 11:22:34;;;;;;;4.63;1.50;;;;;;;14.85;42.19;102615.91;5033023;28;20201;-77
2022/03/17 11:25:20;;;;;;;3.20;1.50;;;;;;;14.88;41.88;102617.59;5050376;28;20048;-77
2022/03/17 11:27:48;;;;;;;4.72;1.35;;;;;;;14.87;41.95;102613.97;5047663;28;20049;-78
2022/03/17 11:30:17;;;;;;;4.47;1.63;;;;;;;14.88;42.18;102618.47;5030053;28;20041;-77
2022/03/17 11:32:55;;;;;;;4.07;1.73;;;;;;;14.91;41.89;102628.34;5035236;28;20547;-77
2022/03/17 11:35:29;;;;;;;3.40;1.73;;;;;;;14.90;41.66;102624.75;5049726;28;20504;-76
2022/03/17 11:38:23;;;;;;;5.38;1.90;;;;;;;14.90;41.69;102632.06;5037170;28;20143;-76